createdAt,value
2022-09-06T00:01:42.900Z,100603.03
2022-09-06T00:04:15.414Z,100604.88
2022-09-06T00:06:45.397Z,100588.06
2022-09-06T00:09:15.104Z,100595.50
2022-09-06T00:11:47.458Z,100589.44
2022-09-06T00:14:17.079Z,100588.69
2022-09-06T00:16:46.905Z,100590.53
2022-09-06T00:19:16.544Z,100590.66
2022-09-06T00:21:46.186Z,100588.09
2022-09-06T00:24:16.360Z,100589.09
2022-09-06T00:26:48.607Z,100589.22
2022-09-06T00:29:18.511Z,100586.53
2022-09-06T00:31:48.225Z,100588.47
2022-09-06T00:34:17.892Z,100584.94
2022-09-06T00:36:47.578Z,100579.59
2022-09-06T00:39:17.257Z,100578.75
2022-09-06T00:41:49.570Z,100584.81
2022-09-06T00:44:19.285Z,100586.00
2022-09-06T00:46:50.712Z,100592.13
2022-09-06T00:49:24.411Z,100651.72
2022-09-06T00:51:55.363Z,100647.94
2022-09-06T00:54:25.510Z,100662.75
2022-09-06T00:56:58.483Z,100666.03
2022-09-06T00:59:28.646Z,100669.19
2022-09-06T01:01:58.939Z,100674.78
2022-09-06T01:04:29.636Z,100666.78
2022-09-06T01:07:06.253Z,100659.22
2022-09-06T01:09:47.179Z,100661.63
2022-09-06T01:12:29.313Z,100650.84
2022-09-06T01:15:08.743Z,100662.47
2022-09-06T01:17:49.080Z,100662.53
2022-09-06T01:20:50.480Z,100665.66
2022-09-06T01:23:53.547Z,100678.47
2022-09-06T01:27:13.496Z,100670.50
2022-09-06T01:29:48.200Z,100670.69
2022-09-06T01:32:23.508Z,100677.38
2022-09-06T01:34:57.263Z,100667.47
2022-09-06T01:37:27.164Z,100669.47
2022-09-06T01:39:56.807Z,100672.13
2022-09-06T01:42:29.988Z,100671.44
2022-09-06T01:45:04.369Z,100672.38
2022-09-06T01:47:41.603Z,100666.06
2022-09-06T01:50:30.640Z,100667.03
2022-09-06T01:53:04.568Z,100671.69
2022-09-06T01:55:38.505Z,100671.81
2022-09-06T01:58:25.141Z,100670.97
2022-09-06T02:01:03.568Z,100665.88
2022-09-06T02:03:37.135Z,100670.63
2022-09-06T02:06:09.459Z,100669.22
2022-09-06T02:08:42.203Z,100657.69
2022-09-06T02:11:13.145Z,100655.66
2022-09-06T02:13:47.831Z,100653.06
2022-09-06T02:16:23.620Z,100660.50
2022-09-06T02:18:55.408Z,100655.66
2022-09-06T02:21:30.955Z,100651.34
2022-09-06T02:24:03.882Z,100652.59
2022-09-06T02:26:36.037Z,100647.75
2022-09-06T02:29:05.774Z,100671.13
2022-09-06T02:31:41.595Z,100690.59
2022-09-06T02:34:12.174Z,100685.63
2022-09-06T02:36:41.942Z,100674.56
2022-09-06T02:39:11.649Z,100675.88
2022-09-06T02:41:42.533Z,100678.69
2022-09-06T02:44:12.249Z,100679.03
2022-09-06T02:46:44.535Z,100686.56
2022-09-06T02:49:14.207Z,100684.63
2022-09-06T02:51:44.008Z,100674.06
2022-09-06T02:54:13.741Z,100667.03
2022-09-06T02:56:43.437Z,100675.03
2022-09-06T02:59:13.145Z,100680.50
2022-09-06T03:01:45.548Z,100677.31
2022-09-06T03:04:15.367Z,100673.94
2022-09-06T03:06:45.076Z,100667.22
2022-09-06T03:09:14.868Z,100663.69
2022-09-06T03:11:44.548Z,100660.09
2022-09-06T03:14:16.230Z,100665.56
2022-09-06T03:16:48.535Z,100660.22
2022-09-06T03:19:18.893Z,100660.66
2022-09-06T03:21:48.578Z,100661.66
2022-09-06T03:24:18.485Z,100664.31
2022-09-06T03:26:48.134Z,100650.09
2022-09-06T03:29:17.852Z,100646.56
2022-09-06T03:31:50.171Z,100651.22
2022-09-06T03:34:19.888Z,100646.34
2022-09-06T03:36:49.552Z,100642.69
2022-09-06T03:39:19.171Z,100631.28
2022-09-06T03:41:48.820Z,100638.31
2022-09-06T03:44:18.457Z,100629.44
2022-09-06T03:46:51.633Z,100623.25
2022-09-06T03:49:21.301Z,100620.56
2022-09-06T03:51:51.055Z,100630.69
2022-09-06T03:54:20.696Z,100609.38
2022-09-06T03:56:50.507Z,100603.31
2022-09-06T03:59:20.264Z,100603.44
2022-09-06T04:01:52.576Z,100605.75
2022-09-06T04:04:22.311Z,100614.00
2022-09-06T04:06:52.028Z,100620.44
2022-09-06T04:09:21.751Z,100612.66
2022-09-06T04:11:51.418Z,100614.50
2022-09-06T04:14:21.146Z,100614.97
2022-09-06T04:16:53.705Z,100609.03
2022-09-06T04:19:23.842Z,100613.53
2022-09-06T04:21:53.528Z,100612.66
2022-09-06T04:24:23.382Z,100612.03
2022-09-06T04:26:52.987Z,100611.19
2022-09-06T04:29:22.670Z,100601.47
2022-09-06T04:31:55.063Z,100605.25
2022-09-06T04:34:24.744Z,100608.66
2022-09-06T04:36:54.374Z,100612.88
2022-09-06T04:39:24.050Z,100613.25
2022-09-06T04:41:53.797Z,100615.09
2022-09-06T04:44:23.443Z,100619.47
2022-09-06T04:47:09.515Z,100619.34
2022-09-06T04:49:39.350Z,100619.34
2022-09-06T04:52:09.038Z,100628.31
2022-09-06T04:54:38.753Z,100626.63
2022-09-06T04:57:08.797Z,100632.81
2022-09-06T04:59:38.678Z,100624.31
2022-09-06T05:02:11.301Z,100634.06
2022-09-06T05:04:41.051Z,100639.50
2022-09-06T05:07:11.749Z,100627.09
2022-09-06T05:09:41.374Z,100640.59
2022-09-06T05:12:11.073Z,100632.81
2022-09-06T05:14:40.764Z,100639.88
2022-09-06T05:17:14.640Z,100634.88
2022-09-06T05:19:44.299Z,100646.25
2022-09-06T05:22:14.153Z,100651.59
2022-09-06T05:24:44.060Z,100655.13
2022-09-06T05:27:14.283Z,100663.88
2022-09-06T05:29:43.899Z,100663.03
2022-09-06T05:32:16.175Z,100659.41
2022-09-06T05:34:45.844Z,100667.41
2022-09-06T05:37:15.489Z,100665.69
2022-09-06T05:39:45.144Z,100665.91
2022-09-06T05:42:19.041Z,100665.41
2022-09-06T05:44:49.014Z,100662.97
2022-09-06T05:47:21.244Z,100668.56
2022-09-06T05:49:50.927Z,100669.63
2022-09-06T05:52:20.571Z,100659.06
2022-09-06T05:54:50.361Z,100661.84
2022-09-06T05:57:20.030Z,100666.78
2022-09-06T05:59:49.674Z,100655.88
2022-09-06T06:02:22.049Z,100644.84
2022-09-06T06:04:52.025Z,100653.72
2022-09-06T06:07:21.655Z,100653.97
2022-09-06T06:09:51.295Z,100654.16
2022-09-06T06:12:20.878Z,100654.75
2022-09-06T06:14:50.583Z,100649.31
2022-09-06T06:17:22.794Z,100642.38
2022-09-06T06:19:53.516Z,100636.28
2022-09-06T06:22:23.285Z,100646.38
2022-09-06T06:24:53.108Z,100647.44
2022-09-06T06:27:22.747Z,100645.84
2022-09-06T06:29:52.710Z,100638.09
2022-09-06T06:32:25.550Z,100639.03
2022-09-06T06:34:55.228Z,100633.69
2022-09-06T06:37:24.856Z,100633.59
2022-09-06T06:39:54.552Z,100630.94
2022-09-06T06:42:24.322Z,100630.69
2022-09-06T06:44:55.797Z,100628.25
2022-09-06T06:47:28.045Z,100631.66
2022-09-06T06:49:57.685Z,100638.94
2022-09-06T06:52:27.322Z,100633.59
2022-09-06T06:54:56.980Z,100632.50
2022-09-06T06:57:26.802Z,100623.53
2022-09-06T06:59:56.426Z,100629.84
2022-09-06T07:02:28.726Z,100619.75
2022-09-06T07:04:58.464Z,100621.13
2022-09-06T07:10:33.603Z,100622.25
2022-09-06T07:13:03.779Z,100631.63
2022-09-06T07:15:33.420Z,100621.41
2022-09-06T07:18:05.929Z,100615.00
2022-09-06T07:26:17.332Z,100628.50
2022-09-06T07:28:48.009Z,100615.06
2022-09-06T07:34:10.124Z,100619.59
2022-09-06T07:36:39.797Z,100618.00
2022-09-06T07:39:09.456Z,100620.81
2022-09-06T07:41:39.098Z,100618.63
2022-09-06T07:44:08.753Z,100616.31
2022-09-06T07:46:38.433Z,100606.72
2022-09-06T07:49:10.989Z,100605.59
2022-09-06T07:51:40.913Z,100610.69
2022-09-06T07:54:30.012Z,100600.09
2022-09-06T07:57:00.330Z,100597.63
2022-09-06T07:59:29.988Z,100604.41
2022-09-06T08:01:59.715Z,100596.94
2022-09-06T08:04:32.100Z,100604.75
2022-09-06T08:09:51.970Z,100601.78
2022-09-06T08:12:22.308Z,100594.38
2022-09-06T08:14:52.048Z,100600.53
2022-09-06T08:17:21.691Z,100608.63
2022-09-06T08:19:53.909Z,100604.69
2022-09-06T08:22:23.521Z,100605.72
2022-09-06T08:24:53.103Z,100609.09
2022-09-06T08:27:23.156Z,100612.09
2022-09-06T08:29:52.800Z,100614.19
2022-09-06T08:32:22.424Z,100603.72
2022-09-06T08:34:54.836Z,100606.50
2022-09-06T08:37:25.167Z,100612.13
2022-09-06T08:39:55.055Z,100606.97
2022-09-06T08:42:24.805Z,100610.19
2022-09-06T08:44:58.558Z,100607.00
2022-09-06T08:47:28.672Z,100604.44
2022-09-06T08:50:04.365Z,100601.94
2022-09-06T08:53:13.308Z,100594.50
2022-09-06T08:55:40.195Z,100607.44
2022-09-06T08:58:22.928Z,100592.91
2022-09-06T09:00:58.646Z,100597.91
2022-09-06T09:03:32.268Z,100597.06
2022-09-06T09:06:05.585Z,100603.53
2022-09-06T09:08:40.257Z,100595.06
2022-09-06T09:11:13.133Z,100596.69
2022-09-06T09:13:48.854Z,100592.72
2022-09-06T09:16:18.799Z,100588.53
2022-09-06T09:18:51.195Z,100587.13
2022-09-06T09:21:30.420Z,100589.94
2022-09-06T09:24:02.497Z,100597.69
2022-09-06T09:26:37.417Z,100583.53
2022-09-06T09:29:12.696Z,100591.28
2022-09-06T09:31:44.343Z,100579.53
2022-09-06T09:34:15.680Z,100580.25
2022-09-06T09:39:39.310Z,100571.19
2022-09-06T09:42:10.316Z,100575.63
2022-09-06T09:44:45.259Z,100572.06
2022-09-06T09:47:28.599Z,100570.41
2022-09-06T09:49:58.367Z,100561.66
2022-09-06T09:52:31.905Z,100558.81
2022-09-06T09:55:04.212Z,100557.84
2022-09-06T09:57:35.268Z,100556.47
2022-09-06T10:00:13.014Z,100547.03
2022-09-06T10:02:44.361Z,100545.06
2022-09-06T10:05:23.101Z,100549.63
2022-09-06T10:07:56.717Z,100550.50
2022-09-06T10:10:28.406Z,100546.09
2022-09-06T10:13:10.641Z,100544.41
2022-09-06T10:15:42.316Z,100540.88
2022-09-06T10:18:18.456Z,100542.38
2022-09-06T10:20:51.208Z,100538.34
2022-09-06T10:26:25.999Z,100537.31
2022-09-06T10:29:01.793Z,100536.66
2022-09-06T10:31:43.737Z,100535.81
2022-09-06T10:34:33.216Z,100530.38
2022-09-06T10:37:12.154Z,100531.41
2022-09-06T10:39:51.995Z,100527.97
2022-09-06T10:42:29.707Z,100530.84
2022-09-06T10:45:21.552Z,100530.16
2022-09-06T10:48:04.850Z,100527.41
2022-09-06T10:50:41.657Z,100522.16
2022-09-06T10:53:16.094Z,100514.31
2022-09-06T10:55:52.936Z,100523.31
2022-09-06T10:58:27.746Z,100521.75
2022-09-06T11:00:58.154Z,100524.59
2022-09-06T11:06:25.496Z,100527.06
2022-09-06T11:09:01.523Z,100523.84
2022-09-06T11:11:38.630Z,100514.31
2022-09-06T11:14:13.353Z,100509.22
2022-09-06T11:16:48.226Z,100514.59
2022-09-06T11:19:22.653Z,100510.97
2022-09-06T11:22:31.222Z,100510.47
2022-09-06T11:25:27.604Z,100517.53
2022-09-06T11:28:02.914Z,100513.78
2022-09-06T11:30:33.157Z,100519.50
2022-09-06T11:33:12.824Z,100521.50
2022-09-06T11:35:45.028Z,100515.53
2022-09-06T11:38:23.715Z,100522.06
2022-09-06T11:41:00.462Z,100517.34
2022-09-06T11:43:48.882Z,100517.94
2022-09-06T11:47:01.614Z,100516.34
2022-09-06T11:49:34.160Z,100512.22
2022-09-06T11:52:04.042Z,100509.63
2022-09-06T11:54:44.583Z,100514.22
2022-09-06T11:57:17.550Z,100507.25
2022-09-06T12:00:00.511Z,100507.53
2022-09-06T12:02:36.881Z,100511.91
2022-09-06T12:05:22.583Z,100514.75
2022-09-06T12:08:18.148Z,100511.28
2022-09-06T12:10:54.048Z,100508.03
2022-09-06T12:13:37.937Z,100504.09
2022-09-06T12:16:10.683Z,100505.59
2022-09-06T12:18:59.091Z,100501.47
2022-09-06T12:21:43.294Z,100495.03
2022-09-06T12:24:56.505Z,100493.44
2022-09-06T12:27:27.025Z,100494.28
2022-09-06T12:29:59.948Z,100492.66
2022-09-06T12:32:37.162Z,100479.00
2022-09-06T12:37:59.747Z,100475.84
2022-09-06T12:40:30.893Z,100480.03
2022-09-06T12:43:01.089Z,100479.66
2022-09-06T12:45:30.809Z,100482.00
2022-09-06T12:48:11.631Z,100478.25
2022-09-06T12:50:41.718Z,100479.53
2022-09-06T12:53:23.653Z,100483.28
2022-09-06T12:56:07.104Z,100470.19
2022-09-06T12:58:38.706Z,100477.84
2022-09-06T13:01:13.555Z,100474.19
2022-09-06T13:03:49.329Z,100476.25
2022-09-06T13:06:26.626Z,100475.88
2022-09-06T13:08:58.427Z,100479.63
2022-09-06T13:11:31.538Z,100479.72
2022-09-06T13:14:01.799Z,100466.13
2022-09-06T13:16:36.485Z,100475.31
2022-09-06T13:19:17.615Z,100472.19
2022-09-06T13:21:49.540Z,100459.28
2022-09-06T13:24:23.867Z,100462.44
2022-09-06T13:26:54.387Z,100454.75
2022-09-06T13:29:28.653Z,100456.91
2022-09-06T13:31:59.687Z,100453.34
2022-09-06T13:34:33.451Z,100456.38
2022-09-06T13:37:05.292Z,100451.78
2022-09-06T13:39:37.516Z,100451.03
2022-09-06T13:42:08.950Z,100455.41
2022-09-06T13:44:39.713Z,100446.66
2022-09-06T13:47:09.483Z,100435.59
2022-09-06T13:49:41.627Z,100449.84
2022-09-06T13:52:11.486Z,100446.09
2022-09-06T13:54:41.098Z,100443.66
2022-09-06T13:57:10.739Z,100454.88
2022-09-06T13:59:41.012Z,100448.44
2022-09-06T14:02:15.940Z,100446.38
2022-09-06T14:04:48.184Z,100444.13
2022-09-06T14:07:18.009Z,100442.25
2022-09-06T14:09:47.802Z,100439.31
2022-09-06T14:12:17.491Z,100439.81
2022-09-06T14:14:47.406Z,100428.53
2022-09-06T14:17:17.611Z,100431.69
2022-09-06T14:19:50.401Z,100440.09
2022-09-06T14:22:20.288Z,100442.63
2022-09-06T14:24:50.866Z,100443.84
2022-09-06T14:27:20.632Z,100442.56
2022-09-06T14:29:50.234Z,100437.31
2022-09-06T14:32:22.495Z,100437.91
2022-09-06T14:34:55.230Z,100431.25
2022-09-06T14:37:25.076Z,100423.94
2022-09-06T14:39:54.835Z,100422.88
2022-09-06T14:42:24.746Z,100418.28
2022-09-06T14:44:54.490Z,100423.09
2022-09-06T14:47:24.257Z,100423.66
2022-09-06T14:49:56.703Z,100414.22
2022-09-06T14:52:26.411Z,100411.25
2022-09-06T14:54:56.123Z,100406.66
2022-09-06T14:57:25.820Z,100405.59
2022-09-06T14:59:55.591Z,100397.47
2022-09-06T15:02:26.322Z,100397.28
2022-09-06T15:04:58.669Z,100389.38
2022-09-06T15:07:28.408Z,100383.72
2022-09-06T15:09:58.152Z,100381.00
2022-09-06T15:12:27.974Z,100387.75
2022-09-06T15:14:57.688Z,100381.91
2022-09-06T15:17:27.446Z,100372.09
2022-09-06T15:19:59.763Z,100382.31
2022-09-06T15:22:29.896Z,100370.16
2022-09-06T15:24:59.577Z,100367.63
2022-09-06T15:27:30.120Z,100369.28
2022-09-06T15:29:59.856Z,100363.53
2022-09-06T15:32:29.597Z,100366.19
2022-09-06T15:35:04.641Z,100365.09
2022-09-06T15:37:34.840Z,100364.84
2022-09-06T15:40:05.051Z,100363.34
2022-09-06T15:42:35.032Z,100353.53
2022-09-06T15:45:04.789Z,100351.84
2022-09-06T15:47:35.350Z,100349.72
2022-09-06T15:50:08.692Z,100351.59
2022-09-06T15:52:38.453Z,100350.50
2022-09-06T15:55:21.841Z,100348.53
2022-09-06T15:57:51.838Z,100352.03
2022-09-06T16:00:23.616Z,100345.31
2022-09-06T16:02:53.458Z,100344.00
2022-09-06T16:08:15.532Z,100347.47
2022-09-06T16:10:45.372Z,100334.47
2022-09-06T16:13:15.113Z,100333.00
2022-09-06T16:15:44.852Z,100329.59
2022-09-06T16:18:14.602Z,100328.13
2022-09-06T16:20:47.045Z,100332.91
2022-09-06T16:23:16.797Z,100334.16
2022-09-06T16:25:50.318Z,100331.16
2022-09-06T16:28:20.040Z,100336.09
2022-09-06T16:30:49.793Z,100333.78
2022-09-06T16:33:19.555Z,100326.03
2022-09-06T16:35:51.943Z,100322.84
2022-09-06T16:38:21.934Z,100324.47
2022-09-06T16:40:51.671Z,100325.22
2022-09-06T16:43:21.549Z,100318.03
2022-09-06T16:45:59.058Z,100327.72
2022-09-06T16:48:29.101Z,100327.81
2022-09-06T16:51:11.124Z,100332.13
2022-09-06T16:53:42.285Z,100337.28
2022-09-06T16:56:12.856Z,100338.50
2022-09-06T16:58:42.583Z,100329.59
2022-09-06T17:01:12.690Z,100338.56
2022-09-06T17:03:42.733Z,100337.09
2022-09-06T17:06:15.082Z,100334.75
2022-09-06T17:08:45.050Z,100335.09
2022-09-06T17:11:17.093Z,100330.47
2022-09-06T17:13:48.786Z,100335.78
2022-09-06T17:16:31.433Z,100327.91
2022-09-06T17:19:02.314Z,100328.97
2022-09-06T17:21:34.818Z,100329.03
2022-09-06T17:24:05.757Z,100330.97
2022-09-06T17:26:39.847Z,100334.31
2022-09-06T17:29:10.436Z,100335.56
2022-09-06T17:31:40.425Z,100329.09
2022-09-06T17:34:10.147Z,100337.59
2022-09-06T17:36:42.444Z,100332.59
2022-09-06T17:39:14.267Z,100331.81
2022-09-06T17:41:45.728Z,100332.69
2022-09-06T17:44:17.431Z,100334.44
2022-09-06T17:47:08.874Z,100331.56
2022-09-06T17:49:37.793Z,100330.44
2022-09-06T17:52:10.146Z,100337.88
2022-09-06T17:54:39.994Z,100326.91
2022-09-06T17:57:09.815Z,100326.75
2022-09-06T17:59:39.657Z,100331.84
2022-09-06T18:02:09.473Z,100330.84
2022-09-06T18:04:39.502Z,100321.91
2022-09-06T18:07:11.928Z,100325.13
2022-09-06T18:09:41.663Z,100325.00
2022-09-06T18:12:11.501Z,100328.38
2022-09-06T18:14:41.416Z,100330.94
2022-09-06T18:17:11.208Z,100333.66
2022-09-06T18:19:40.994Z,100345.13
2022-09-06T18:22:13.401Z,100336.22
2022-09-06T18:24:43.156Z,100328.09
2022-09-06T18:27:12.894Z,100326.25
2022-09-06T18:29:42.761Z,100326.25
2022-09-06T18:32:12.986Z,100324.56
2022-09-06T18:34:42.758Z,100331.84
2022-09-06T18:37:15.100Z,100329.97
2022-09-06T18:39:45.125Z,100322.72
2022-09-06T18:42:14.914Z,100328.09
2022-09-06T18:44:44.716Z,100342.41
2022-09-06T18:47:15.037Z,100345.25
2022-09-06T18:49:44.976Z,100346.09
2022-09-06T18:52:19.675Z,100338.97
2022-09-06T18:54:49.462Z,100345.03
2022-09-06T18:57:19.212Z,100344.00
2022-09-06T18:59:48.949Z,100346.50
2022-09-06T19:02:18.741Z,100343.94
2022-09-06T19:04:48.741Z,100336.81
2022-09-06T19:07:21.059Z,100342.81
2022-09-06T19:09:50.838Z,100336.72
2022-09-06T19:12:20.547Z,100327.59
2022-09-06T19:14:50.295Z,100330.06
2022-09-06T19:17:20.030Z,100332.56
2022-09-06T19:19:49.805Z,100337.78
2022-09-06T19:22:22.857Z,100327.78
2022-09-06T19:24:52.532Z,100325.06
2022-09-06T19:27:22.378Z,100318.44
2022-09-06T19:29:52.101Z,100314.53
2022-09-06T19:32:22.349Z,100299.97
2022-09-06T19:34:52.404Z,100294.53
2022-09-06T19:37:24.755Z,100292.78
2022-09-06T19:39:54.945Z,100289.75
2022-09-06T19:42:24.872Z,100293.03
2022-09-06T19:44:54.932Z,100286.28
2022-09-06T19:47:24.656Z,100283.06
2022-09-06T19:49:54.639Z,100278.97
2022-09-06T19:52:26.971Z,100276.63
2022-09-06T19:54:56.660Z,100270.56
2022-09-06T19:57:26.362Z,100271.84
2022-09-06T19:59:56.171Z,100269.66
2022-09-06T20:02:26.334Z,100268.25
2022-09-06T20:04:56.112Z,100279.50
2022-09-06T20:07:28.889Z,100275.25
2022-09-06T20:09:58.683Z,100277.25
2022-09-06T20:12:29.753Z,100296.91
2022-09-06T20:14:59.492Z,100291.22
2022-09-06T20:17:33.883Z,100288.25
2022-09-06T20:20:04.252Z,100285.06
2022-09-06T20:22:36.555Z,100284.22
2022-09-06T20:25:07.347Z,100280.00
2022-09-06T20:27:39.316Z,100279.00
2022-09-06T20:30:12.000Z,100279.00
2022-09-06T20:32:42.476Z,100278.31
2022-09-06T20:35:12.718Z,100284.72
2022-09-06T20:37:45.056Z,100286.84
2022-09-06T20:40:15.343Z,100290.09
2022-09-06T20:42:46.107Z,100299.16
2022-09-06T20:45:17.735Z,100289.69
2022-09-06T20:47:47.536Z,100288.16
2022-09-06T20:50:17.433Z,100291.28
2022-09-06T20:52:49.867Z,100287.81
2022-09-06T20:55:19.762Z,100295.31
2022-09-06T20:57:49.851Z,100286.06
2022-09-06T21:00:19.947Z,100288.19
2022-09-06T21:02:49.693Z,100294.19
2022-09-06T21:05:19.541Z,100293.63
2022-09-06T21:07:51.861Z,100289.56
2022-09-06T21:10:21.581Z,100285.78
2022-09-06T21:12:51.354Z,100285.22
2022-09-06T21:15:21.345Z,100288.66
2022-09-06T21:17:51.035Z,100283.59
2022-09-06T21:20:21.085Z,100289.13
2022-09-06T21:22:53.437Z,100279.38
2022-09-06T21:25:23.220Z,100288.44
2022-09-06T21:27:55.753Z,100289.66
2022-09-06T21:30:25.756Z,100306.03
2022-09-06T21:32:58.681Z,100300.75
2022-09-06T21:35:28.380Z,100305.78
2022-09-06T21:38:01.185Z,100311.78
2022-09-06T21:40:31.099Z,100313.09
2022-09-06T21:43:00.857Z,100310.13
2022-09-06T21:45:30.828Z,100308.22
2022-09-06T21:48:00.571Z,100311.66
2022-09-06T21:50:30.297Z,100309.72
2022-09-06T21:53:02.701Z,100315.31
2022-09-06T21:55:35.135Z,100310.16
2022-09-06T21:58:05.295Z,100308.00
2022-09-06T22:00:35.135Z,100299.63
2022-09-06T22:03:05.082Z,100288.84
2022-09-06T22:05:34.866Z,100271.53
2022-09-06T22:08:07.248Z,100261.94
2022-09-06T22:10:36.974Z,100259.22
2022-09-06T22:13:06.697Z,100259.22
2022-09-06T22:15:39.933Z,100244.94
2022-09-06T22:18:10.103Z,100247.28
2022-09-06T22:20:40.476Z,100233.16
2022-09-06T22:23:12.791Z,100224.25
2022-09-06T22:25:42.914Z,100210.78
2022-09-06T22:28:12.615Z,100199.31
2022-09-06T22:30:42.904Z,100192.09
2022-09-06T22:33:12.683Z,100169.03
2022-09-06T22:35:42.413Z,100174.56
2022-09-06T22:38:14.773Z,100173.06
2022-09-06T22:40:44.837Z,100173.06
2022-09-06T22:43:15.594Z,100170.50
2022-09-06T22:45:49.832Z,100160.75
2022-09-06T22:48:21.999Z,100157.19
2022-09-06T22:50:51.790Z,100150.13
2022-09-06T22:53:24.123Z,100147.44
2022-09-06T22:55:53.827Z,100133.31
2022-09-06T22:58:23.821Z,100123.22
2022-09-06T23:00:53.702Z,100127.94
2022-09-06T23:03:23.598Z,100128.94
2022-09-06T23:05:53.372Z,100125.41
2022-09-06T23:08:25.834Z,100120.19
2022-09-06T23:10:55.618Z,100123.84
2022-09-06T23:13:25.331Z,100134.13
2022-09-06T23:15:55.196Z,100143.38
2022-09-06T23:18:25.043Z,100155.97
2022-09-06T23:20:54.779Z,100166.88
2022-09-06T23:23:27.274Z,100158.13
2022-09-06T23:25:56.973Z,100157.59
2022-09-06T23:28:26.845Z,100159.47
2022-09-06T23:30:56.670Z,100170.34
2022-09-06T23:33:26.654Z,100172.53
2022-09-06T23:35:57.120Z,100211.03
2022-09-06T23:38:29.759Z,100361.19
2022-09-06T23:40:59.878Z,100352.19
2022-09-06T23:43:29.634Z,100384.78
2022-09-06T23:45:59.514Z,100413.19
2022-09-06T23:48:29.753Z,100408.19
2022-09-06T23:50:59.743Z,100414.28
2022-09-06T23:53:32.348Z,100428.06
2022-09-06T23:56:02.514Z,100440.34
2022-09-06T23:58:32.746Z,100435.06
